Kezdőlap
METAR-TAF:

METAR-TAF

Repülőterek :

Casa Grande, Arizona, Amerikai Egyesült Államok

földrajzi szélesség: 32-57N, földrajzi hosszúság: 111-46W, magasság: 446 m

Jelenlegi meteorológiai megfigyelések

A jelentés 4 perccel ezelõtt készült, 05:56 UTC
Délkeleti szél 9 kt
Hőmérséklet 34°C
Páratartalom 34%
Légköri nyomás 1010 hPa
Látótávolság: 16.1 km
Derült ég

METAR: KCGZ 220556Z AUTO 14009KT 10SM CLR 34/16 A2983 RMK AO2 SLP079 6//// T03390156 PNO $

Idő: 23:00 (06:00 UTC)


TAF: hiányzik

Meteorológiai megfigyelések és előrejelzések több, mint 4000 repülőtéren (METAR és TAF jelentéseket).

A térképen piros és sárga pontok jelzik az elérhető meteorológiai állomásokat.

Mozgassa az egeret a pont fölött, hogy megjelenjen az állomás neve.

Azután kattintson az időjárási megfigyelések és előrejelzések megtekintéséhez.

A térkép megváltoztatása: kattintson a fekete keresztel jelölt zöld gombra ráközelítéshez, a vonallal jelölt zöld gombra távolításhoz, vagy a zöld nyilakra a szomszédos térképek eléréséhez.


METAR-TAF: